KBKT/BKT METAR and TAF weather

Enter ICAO airport designator
Station Type Date Time Source
KBKT METAR 2020/01/19 23:15 UTC NOAA

KBKT 192315Z AUTO 31010KT 10SM CLR 04/M07 A3002 RMK AO1 T00371070


Station Type Date Time Source
KBKT Decoded METAR 2020/01/19 23:15 UTC NOAA

Ft. Pickett / Blackstone, VA, United States (KBKT) 37-05N 077-57W
Jan 19, 2020 - 06:15 PM EST / 2020.01.19 2315 UTC
Wind: from the NW (310 degrees) at 12 MPH (10 KT):0
Visibility: 10 mile(s):0
Sky conditions: clear
Temperature: 38.7 F (3.7 C)
Dew Point: 19.4 F (-7.0 C)
Relative Humidity: 45%
Pressure (altimeter): 30.02 in. Hg (1016 hPa)
ob: KBKT 192315Z AUTO 31010KT 10SM CLR 04/M07 A3002 RMK AO1 T00371070
cycle: 23

Station Type Date Time Source
KBKT TAF UTC NOAA

Error!

Example: see airport list